sensor_id;sensor_type;location;lat;lon;timestamp;P1;durP1;ratioP1;P2;durP2;ratioP2
56599;SDS011;51832;48.152;11.530;2023-07-08T00:00:55;7.68;;;5.45;;
56599;SDS011;51832;48.152;11.530;2023-07-08T00:05:55;6.75;;;5.55;;
56599;SDS011;51832;48.152;11.530;2023-07-08T00:10:57;10.50;;;6.18;;
56599;SDS011;51832;48.152;11.530;2023-07-08T00:15:57;8.25;;;5.57;;
56599;SDS011;51832;48.152;11.530;2023-07-08T00:20:58;9.27;;;5.53;;
56599;SDS011;51832;48.152;11.530;2023-07-08T00:25:59;7.45;;;5.47;;
56599;SDS011;51832;48.152;11.530;2023-07-08T00:31:00;8.68;;;5.38;;
56599;SDS011;51832;48.152;11.530;2023-07-08T00:36:00;8.13;;;5.95;;
56599;SDS011;51832;48.152;11.530;2023-07-08T00:46:04;8.97;;;6.00;;
56599;SDS011;51832;48.152;11.530;2023-07-08T00:51:11;7.88;;;5.45;;
56599;SDS011;51832;48.152;11.530;2023-07-08T00:56:13;7.90;;;5.75;;
56599;SDS011;51832;48.152;11.530;2023-07-08T01:01:20;9.30;;;5.25;;
56599;SDS011;51832;48.152;11.530;2023-07-08T01:06:21;8.20;;;5.90;;
56599;SDS011;51832;48.152;11.530;2023-07-08T01:11:31;10.15;;;5.45;;
56599;SDS011;51832;48.152;11.530;2023-07-08T01:16:33;8.07;;;5.80;;
56599;SDS011;51832;48.152;11.530;2023-07-08T01:21:34;9.77;;;5.90;;
56599;SDS011;51832;48.152;11.530;2023-07-08T01:26:40;8.20;;;6.10;;
56599;SDS011;51832;48.152;11.530;2023-07-08T01:31:46;7.53;;;5.38;;
56599;SDS011;51832;48.152;11.530;2023-07-08T01:36:52;8.52;;;5.93;;
56599;SDS011;51832;48.152;11.530;2023-07-08T01:41:55;8.63;;;5.68;;
56599;SDS011;51832;48.152;11.530;2023-07-08T01:46:57;10.73;;;6.72;;
56599;SDS011;51832;48.152;11.530;2023-07-08T01:52:11;9.57;;;6.32;;
56599;SDS011;51832;48.152;11.530;2023-07-08T01:57:12;9.90;;;6.25;;
56599;SDS011;51832;48.152;11.530;2023-07-08T02:02:12;11.03;;;6.53;;
56599;SDS011;51832;48.152;11.530;2023-07-08T02:07:13;9.88;;;6.65;;
56599;SDS011;51832;48.152;11.530;2023-07-08T02:12:13;9.87;;;6.37;;
56599;SDS011;51832;48.152;11.530;2023-07-08T02:17:14;11.50;;;6.57;;
56599;SDS011;51832;48.152;11.530;2023-07-08T02:22:16;10.23;;;7.20;;
56599;SDS011;51832;48.152;11.530;2023-07-08T02:27:17;10.53;;;6.20;;
56599;SDS011;51832;48.152;11.530;2023-07-08T02:32:18;9.57;;;6.30;;
56599;SDS011;51832;48.152;11.530;2023-07-08T02:37:18;10.48;;;6.97;;
56599;SDS011;51832;48.152;11.530;2023-07-08T02:42:19;10.50;;;6.83;;
56599;SDS011;51832;48.152;11.530;2023-07-08T02:47:19;9.97;;;6.27;;
56599;SDS011;51832;48.152;11.530;2023-07-08T02:52:19;9.97;;;6.30;;
56599;SDS011;51832;48.152;11.530;2023-07-08T02:57:20;10.35;;;6.55;;
56599;SDS011;51832;48.152;11.530;2023-07-08T03:02:23;10.57;;;7.10;;
56599;SDS011;51832;48.152;11.530;2023-07-08T03:07:24;9.98;;;6.18;;
56599;SDS011;51832;48.152;11.530;2023-07-08T03:12:25;10.15;;;6.47;;
56599;SDS011;51832;48.152;11.530;2023-07-08T03:17:25;13.20;;;6.70;;
56599;SDS011;51832;48.152;11.530;2023-07-08T03:22:26;10.30;;;6.43;;
56599;SDS011;51832;48.152;11.530;2023-07-08T03:27:26;11.45;;;6.15;;
56599;SDS011;51832;48.152;11.530;2023-07-08T03:32:27;9.33;;;6.33;;
56599;SDS011;51832;48.152;11.530;2023-07-08T03:37:27;8.97;;;5.80;;
56599;SDS011;51832;48.152;11.530;2023-07-08T03:42:27;9.50;;;5.75;;
56599;SDS011;51832;48.152;11.530;2023-07-08T03:47:28;8.17;;;5.47;;
56599;SDS011;51832;48.152;11.530;2023-07-08T03:52:28;8.83;;;5.83;;
56599;SDS011;51832;48.152;11.530;2023-07-08T03:57:28;8.97;;;5.83;;
56599;SDS011;51832;48.152;11.530;2023-07-08T04:02:29;7.60;;;5.27;;
56599;SDS011;51832;48.152;11.530;2023-07-08T04:07:29;8.10;;;5.43;;
56599;SDS011;51832;48.152;11.530;2023-07-08T04:12:30;7.43;;;5.50;;
56599;SDS011;51832;48.152;11.530;2023-07-08T04:17:30;8.27;;;5.38;;
56599;SDS011;51832;48.152;11.530;2023-07-08T04:22:31;9.18;;;5.65;;
56599;SDS011;51832;48.152;11.530;2023-07-08T04:27:31;8.80;;;5.32;;
56599;SDS011;51832;48.152;11.530;2023-07-08T04:32:32;10.57;;;6.07;;
56599;SDS011;51832;48.152;11.530;2023-07-08T04:37:32;10.77;;;6.50;;
56599;SDS011;51832;48.152;11.530;2023-07-08T04:42:33;8.23;;;6.07;;
56599;SDS011;51832;48.152;11.530;2023-07-08T04:47:33;11.27;;;6.30;;
56599;SDS011;51832;48.152;11.530;2023-07-08T04:52:34;8.77;;;5.60;;
56599;SDS011;51832;48.152;11.530;2023-07-08T04:57:35;9.65;;;6.45;;
56599;SDS011;51832;48.152;11.530;2023-07-08T05:02:36;11.60;;;6.85;;
56599;SDS011;51832;48.152;11.530;2023-07-08T05:07:36;10.23;;;6.23;;
56599;SDS011;51832;48.152;11.530;2023-07-08T05:12:37;13.00;;;7.57;;
56599;SDS011;51832;48.152;11.530;2023-07-08T05:17:37;10.77;;;6.40;;
56599;SDS011;51832;48.152;11.530;2023-07-08T05:22:39;11.35;;;6.88;;
56599;SDS011;51832;48.152;11.530;2023-07-08T05:27:39;10.45;;;6.00;;
56599;SDS011;51832;48.152;11.530;2023-07-08T05:32:40;7.68;;;6.18;;
56599;SDS011;51832;48.152;11.530;2023-07-08T05:37:41;9.73;;;6.30;;
56599;SDS011;51832;48.152;11.530;2023-07-08T05:42:44;10.50;;;6.30;;
56599;SDS011;51832;48.152;11.530;2023-07-08T05:47:45;11.20;;;6.70;;
56599;SDS011;51832;48.152;11.530;2023-07-08T05:52:45;9.00;;;6.10;;
56599;SDS011;51832;48.152;11.530;2023-07-08T05:57:45;8.80;;;6.70;;
56599;SDS011;51832;48.152;11.530;2023-07-08T06:02:46;12.90;;;7.33;;
56599;SDS011;51832;48.152;11.530;2023-07-08T06:07:46;11.32;;;7.22;;
56599;SDS011;51832;48.152;11.530;2023-07-08T06:12:47;10.53;;;7.03;;
56599;SDS011;51832;48.152;11.530;2023-07-08T06:17:47;9.40;;;6.32;;
56599;SDS011;51832;48.152;11.530;2023-07-08T06:22:47;11.68;;;6.85;;
56599;SDS011;51832;48.152;11.530;2023-07-08T06:27:48;11.20;;;5.97;;
56599;SDS011;51832;48.152;11.530;2023-07-08T06:32:48;12.50;;;6.43;;
56599;SDS011;51832;48.152;11.530;2023-07-08T06:37:49;10.13;;;6.78;;
56599;SDS011;51832;48.152;11.530;2023-07-08T06:42:49;11.90;;;7.22;;
56599;SDS011;51832;48.152;11.530;2023-07-08T06:47:50;9.65;;;6.70;;
56599;SDS011;51832;48.152;11.530;2023-07-08T06:52:51;11.88;;;6.88;;
56599;SDS011;51832;48.152;11.530;2023-07-08T06:57:51;10.73;;;6.40;;
56599;SDS011;51832;48.152;11.530;2023-07-08T07:02:52;10.63;;;7.30;;
56599;SDS011;51832;48.152;11.530;2023-07-08T07:07:52;11.47;;;7.17;;
56599;SDS011;51832;48.152;11.530;2023-07-08T07:12:52;11.38;;;7.65;;
56599;SDS011;51832;48.152;11.530;2023-07-08T07:17:53;10.20;;;6.60;;
56599;SDS011;51832;48.152;11.530;2023-07-08T07:22:54;12.60;;;7.85;;
56599;SDS011;51832;48.152;11.530;2023-07-08T07:27:54;12.20;;;7.13;;
56599;SDS011;51832;48.152;11.530;2023-07-08T07:32:58;11.85;;;7.28;;
56599;SDS011;51832;48.152;11.530;2023-07-08T07:38:00;11.95;;;7.38;;
56599;SDS011;51832;48.152;11.530;2023-07-08T07:43:00;11.15;;;6.90;;
56599;SDS011;51832;48.152;11.530;2023-07-08T07:48:01;11.32;;;7.75;;
56599;SDS011;51832;48.152;11.530;2023-07-08T07:53:02;12.55;;;7.80;;
56599;SDS011;51832;48.152;11.530;2023-07-08T07:58:03;11.03;;;7.17;;
56599;SDS011;51832;48.152;11.530;2023-07-08T08:03:05;11.67;;;7.13;;
56599;SDS011;51832;48.152;11.530;2023-07-08T08:08:05;11.02;;;7.07;;
56599;SDS011;51832;48.152;11.530;2023-07-08T08:13:06;11.53;;;7.40;;
56599;SDS011;51832;48.152;11.530;2023-07-08T08:18:07;11.00;;;6.78;;
56599;SDS011;51832;48.152;11.530;2023-07-08T08:23:08;11.15;;;7.57;;
56599;SDS011;51832;48.152;11.530;2023-07-08T08:28:08;11.57;;;7.37;;
56599;SDS011;51832;48.152;11.530;2023-07-08T08:33:08;12.20;;;7.20;;
56599;SDS011;51832;48.152;11.530;2023-07-08T08:38:09;11.77;;;6.67;;
56599;SDS011;51832;48.152;11.530;2023-07-08T08:43:10;13.18;;;6.65;;
56599;SDS011;51832;48.152;11.530;2023-07-08T08:48:19;9.63;;;6.07;;
56599;SDS011;51832;48.152;11.530;2023-07-08T08:53:20;9.98;;;6.75;;
56599;SDS011;51832;48.152;11.530;2023-07-08T08:58:30;10.65;;;6.68;;
56599;SDS011;51832;48.152;11.530;2023-07-08T09:03:51;10.77;;;6.25;;
56599;SDS011;51832;48.152;11.530;2023-07-08T09:09:05;10.13;;;6.13;;
56599;SDS011;51832;48.152;11.530;2023-07-08T09:14:21;10.43;;;6.80;;
56599;SDS011;51832;48.152;11.530;2023-07-08T09:19:28;8.10;;;5.95;;
56599;SDS011;51832;48.152;11.530;2023-07-08T09:24:38;9.30;;;5.88;;
56599;SDS011;51832;48.152;11.530;2023-07-08T09:29:41;7.88;;;6.15;;
56599;SDS011;51832;48.152;11.530;2023-07-08T09:34:51;8.32;;;6.05;;
56599;SDS011;51832;48.152;11.530;2023-07-08T09:39:56;8.13;;;5.78;;
56599;SDS011;51832;48.152;11.530;2023-07-08T09:44:59;10.25;;;6.32;;
56599;SDS011;51832;48.152;11.530;2023-07-08T09:55:20;9.05;;;5.75;;
56599;SDS011;51832;48.152;11.530;2023-07-08T10:00:54;9.60;;;6.75;;
56599;SDS011;51832;48.152;11.530;2023-07-08T10:05:52;9.80;;;6.15;;
56599;SDS011;51832;48.152;11.530;2023-07-08T10:11:10;9.63;;;5.57;;
56599;SDS011;51832;48.152;11.530;2023-07-08T10:21:36;8.35;;;5.88;;
56599;SDS011;51832;48.152;11.530;2023-07-08T10:26:38;8.63;;;5.63;;
56599;SDS011;51832;48.152;11.530;2023-07-08T10:31:52;6.90;;;5.22;;
56599;SDS011;51832;48.152;11.530;2023-07-08T10:37:13;11.48;;;5.80;;
56599;SDS011;51832;48.152;11.530;2023-07-08T10:42:30;7.13;;;4.85;;
56599;SDS011;51832;48.152;11.530;2023-07-08T11:08:42;7.68;;;4.88;;
56599;SDS011;51832;48.152;11.530;2023-07-08T11:13:50;9.48;;;5.13;;
56599;SDS011;51832;48.152;11.530;2023-07-08T11:24:34;10.02;;;5.60;;
56599;SDS011;51832;48.152;11.530;2023-07-08T11:29:40;7.97;;;5.57;;
56599;SDS011;51832;48.152;11.530;2023-07-08T11:34:46;7.07;;;5.47;;
56599;SDS011;51832;48.152;11.530;2023-07-08T11:39:58;10.23;;;5.70;;
56599;SDS011;51832;48.152;11.530;2023-07-08T11:45:23;7.50;;;5.68;;
56599;SDS011;51832;48.152;11.530;2023-07-08T11:50:29;8.85;;;6.22;;
56599;SDS011;51832;48.152;11.530;2023-07-08T11:55:44;8.68;;;6.00;;
56599;SDS011;51832;48.152;11.530;2023-07-08T12:01:03;7.88;;;5.90;;
56599;SDS011;51832;48.152;11.530;2023-07-08T12:11:53;8.20;;;5.90;;
56599;SDS011;51832;48.152;11.530;2023-07-08T12:16:55;9.48;;;6.28;;
56599;SDS011;51832;48.152;11.530;2023-07-08T12:21:56;7.95;;;6.22;;
56599;SDS011;51832;48.152;11.530;2023-07-08T12:26:56;8.03;;;5.70;;
56599;SDS011;51832;48.152;11.530;2023-07-08T12:31:57;8.30;;;5.70;;
56599;SDS011;51832;48.152;11.530;2023-07-08T12:36:58;9.20;;;5.87;;
56599;SDS011;51832;48.152;11.530;2023-07-08T12:41:59;7.20;;;5.45;;
56599;SDS011;51832;48.152;11.530;2023-07-08T12:47:01;6.77;;;5.33;;
56599;SDS011;51832;48.152;11.530;2023-07-08T12:52:03;8.90;;;5.80;;
56599;SDS011;51832;48.152;11.530;2023-07-08T12:57:03;7.38;;;5.90;;
56599;SDS011;51832;48.152;11.530;2023-07-08T13:02:08;8.50;;;5.57;;
56599;SDS011;51832;48.152;11.530;2023-07-08T13:07:22;6.82;;;5.20;;
56599;SDS011;51832;48.152;11.530;2023-07-08T13:12:32;6.18;;;5.13;;
56599;SDS011;51832;48.152;11.530;2023-07-08T13:17:38;8.20;;;5.28;;
56599;SDS011;51832;48.152;11.530;2023-07-08T13:22:41;10.10;;;5.63;;
56599;SDS011;51832;48.152;11.530;2023-07-08T13:27:54;6.82;;;5.07;;
56599;SDS011;51832;48.152;11.530;2023-07-08T13:32:59;7.40;;;5.13;;
56599;SDS011;51832;48.152;11.530;2023-07-08T13:38:00;6.75;;;4.97;;
56599;SDS011;51832;48.152;11.530;2023-07-08T13:43:00;8.37;;;5.43;;
56599;SDS011;51832;48.152;11.530;2023-07-08T13:48:10;7.15;;;4.93;;
56599;SDS011;51832;48.152;11.530;2023-07-08T13:53:17;7.68;;;5.25;;
56599;SDS011;51832;48.152;11.530;2023-07-08T13:58:26;6.72;;;5.00;;
56599;SDS011;51832;48.152;11.530;2023-07-08T14:03:29;6.38;;;4.82;;
56599;SDS011;51832;48.152;11.530;2023-07-08T14:08:29;7.37;;;4.97;;
56599;SDS011;51832;48.152;11.530;2023-07-08T14:13:29;6.87;;;5.20;;
56599;SDS011;51832;48.152;11.530;2023-07-08T14:18:30;5.57;;;4.33;;
56599;SDS011;51832;48.152;11.530;2023-07-08T14:23:30;7.33;;;5.43;;
56599;SDS011;51832;48.152;11.530;2023-07-08T14:28:30;8.07;;;4.67;;
56599;SDS011;51832;48.152;11.530;2023-07-08T14:33:31;8.00;;;4.30;;
56599;SDS011;51832;48.152;11.530;2023-07-08T14:38:31;6.83;;;4.87;;
56599;SDS011;51832;48.152;11.530;2023-07-08T14:43:32;12.57;;;5.60;;
56599;SDS011;51832;48.152;11.530;2023-07-08T14:48:33;7.40;;;4.53;;
56599;SDS011;51832;48.152;11.530;2023-07-08T14:53:34;6.23;;;4.13;;
56599;SDS011;51832;48.152;11.530;2023-07-08T14:58:34;4.87;;;3.90;;
56599;SDS011;51832;48.152;11.530;2023-07-08T15:03:39;6.05;;;4.40;;
56599;SDS011;51832;48.152;11.530;2023-07-08T15:08:39;7.90;;;4.30;;
56599;SDS011;51832;48.152;11.530;2023-07-08T15:13:40;6.33;;;4.10;;
56599;SDS011;51832;48.152;11.530;2023-07-08T15:18:45;6.38;;;4.20;;
56599;SDS011;51832;48.152;11.530;2023-07-08T15:23:45;6.10;;;3.97;;
56599;SDS011;51832;48.152;11.530;2023-07-08T15:28:46;4.57;;;3.63;;
56599;SDS011;51832;48.152;11.530;2023-07-08T15:33:51;5.05;;;4.22;;
56599;SDS011;51832;48.152;11.530;2023-07-08T15:38:52;6.43;;;4.63;;
56599;SDS011;51832;48.152;11.530;2023-07-08T15:43:53;4.57;;;3.43;;
56599;SDS011;51832;48.152;11.530;2023-07-08T15:53:55;7.82;;;4.18;;
56599;SDS011;51832;48.152;11.530;2023-07-08T15:58:55;7.37;;;4.40;;
56599;SDS011;51832;48.152;11.530;2023-07-08T16:03:56;8.90;;;5.00;;
56599;SDS011;51832;48.152;11.530;2023-07-08T16:08:56;7.90;;;4.37;;
56599;SDS011;51832;48.152;11.530;2023-07-08T16:13:57;7.03;;;3.70;;
56599;SDS011;51832;48.152;11.530;2023-07-08T16:18:58;4.73;;;3.70;;
56599;SDS011;51832;48.152;11.530;2023-07-08T16:23:58;6.00;;;3.87;;
56599;SDS011;51832;48.152;11.530;2023-07-08T16:28:59;6.97;;;4.10;;
56599;SDS011;51832;48.152;11.530;2023-07-08T16:34:00;5.87;;;4.30;;
56599;SDS011;51832;48.152;11.530;2023-07-08T16:39:01;6.18;;;4.22;;
56599;SDS011;51832;48.152;11.530;2023-07-08T16:44:02;6.43;;;4.33;;
56599;SDS011;51832;48.152;11.530;2023-07-08T16:49:08;5.03;;;3.90;;
56599;SDS011;51832;48.152;11.530;2023-07-08T16:54:14;5.72;;;4.03;;
56599;SDS011;51832;48.152;11.530;2023-07-08T16:59:16;4.65;;;3.80;;
56599;SDS011;51832;48.152;11.530;2023-07-08T17:04:17;8.53;;;4.37;;
56599;SDS011;51832;48.152;11.530;2023-07-08T17:09:18;6.50;;;4.53;;
56599;SDS011;51832;48.152;11.530;2023-07-08T17:14:18;7.27;;;4.63;;
56599;SDS011;51832;48.152;11.530;2023-07-08T17:19:18;7.57;;;4.57;;
56599;SDS011;51832;48.152;11.530;2023-07-08T17:24:19;5.73;;;4.40;;
56599;SDS011;51832;48.152;11.530;2023-07-08T17:29:21;5.88;;;4.00;;
56599;SDS011;51832;48.152;11.530;2023-07-08T17:34:23;5.47;;;4.40;;
56599;SDS011;51832;48.152;11.530;2023-07-08T17:39:25;8.15;;;5.78;;
56599;SDS011;51832;48.152;11.530;2023-07-08T17:44:26;5.60;;;4.80;;
56599;SDS011;51832;48.152;11.530;2023-07-08T17:49:27;5.88;;;4.50;;
56599;SDS011;51832;48.152;11.530;2023-07-08T17:54:27;5.93;;;5.43;;
56599;SDS011;51832;48.152;11.530;2023-07-08T17:59:30;7.53;;;5.15;;
56599;SDS011;51832;48.152;11.530;2023-07-08T18:04:31;7.65;;;5.13;;
56599;SDS011;51832;48.152;11.530;2023-07-08T18:09:31;5.07;;;4.57;;
56599;SDS011;51832;48.152;11.530;2023-07-08T18:14:32;8.00;;;6.10;;
56599;SDS011;51832;48.152;11.530;2023-07-08T18:19:32;6.53;;;5.17;;
56599;SDS011;51832;48.152;11.530;2023-07-08T18:24:32;8.20;;;5.13;;
56599;SDS011;51832;48.152;11.530;2023-07-08T18:29:33;8.80;;;5.67;;
56599;SDS011;51832;48.152;11.530;2023-07-08T18:34:33;7.33;;;4.87;;
56599;SDS011;51832;48.152;11.530;2023-07-08T18:39:33;6.97;;;5.43;;
56599;SDS011;51832;48.152;11.530;2023-07-08T18:44:34;6.50;;;5.13;;
56599;SDS011;51832;48.152;11.530;2023-07-08T18:49:37;7.72;;;4.75;;
56599;SDS011;51832;48.152;11.530;2023-07-08T18:59:38;12.02;;;6.40;;
56599;SDS011;51832;48.152;11.530;2023-07-08T19:04:39;5.93;;;4.90;;
56599;SDS011;51832;48.152;11.530;2023-07-08T19:09:39;7.20;;;5.40;;
56599;SDS011;51832;48.152;11.530;2023-07-08T19:14:39;12.33;;;6.27;;
56599;SDS011;51832;48.152;11.530;2023-07-08T19:19:40;8.37;;;5.77;;
56599;SDS011;51832;48.152;11.530;2023-07-08T19:24:40;10.17;;;7.43;;
56599;SDS011;51832;48.152;11.530;2023-07-08T19:29:41;11.53;;;7.10;;
56599;SDS011;51832;48.152;11.530;2023-07-08T19:34:42;9.33;;;6.80;;
56599;SDS011;51832;48.152;11.530;2023-07-08T19:39:45;11.13;;;6.80;;
56599;SDS011;51832;48.152;11.530;2023-07-08T19:44:46;11.23;;;7.57;;
56599;SDS011;51832;48.152;11.530;2023-07-08T19:49:46;11.37;;;7.63;;
56599;SDS011;51832;48.152;11.530;2023-07-08T19:54:47;12.00;;;8.27;;
56599;SDS011;51832;48.152;11.530;2023-07-08T19:59:48;12.00;;;9.47;;
56599;SDS011;51832;48.152;11.530;2023-07-08T20:04:48;10.90;;;9.03;;
56599;SDS011;51832;48.152;11.530;2023-07-08T20:09:48;12.37;;;8.17;;
56599;SDS011;51832;48.152;11.530;2023-07-08T20:14:49;8.43;;;5.80;;
56599;SDS011;51832;48.152;11.530;2023-07-08T20:19:49;7.80;;;5.83;;
56599;SDS011;51832;48.152;11.530;2023-07-08T20:24:49;12.05;;;8.63;;
56599;SDS011;51832;48.152;11.530;2023-07-08T20:29:50;12.65;;;8.23;;
56599;SDS011;51832;48.152;11.530;2023-07-08T20:34:50;7.82;;;6.68;;
56599;SDS011;51832;48.152;11.530;2023-07-08T20:39:51;9.40;;;7.53;;
56599;SDS011;51832;48.152;11.530;2023-07-08T20:44:51;16.15;;;7.43;;
56599;SDS011;51832;48.152;11.530;2023-07-08T20:49:51;10.27;;;6.22;;
56599;SDS011;51832;48.152;11.530;2023-07-08T20:54:52;10.23;;;6.53;;
56599;SDS011;51832;48.152;11.530;2023-07-08T20:59:53;7.72;;;5.43;;
56599;SDS011;51832;48.152;11.530;2023-07-08T21:04:53;7.23;;;5.20;;
56599;SDS011;51832;48.152;11.530;2023-07-08T21:09:53;9.53;;;5.67;;
56599;SDS011;51832;48.152;11.530;2023-07-08T21:14:54;11.82;;;6.45;;
56599;SDS011;51832;48.152;11.530;2023-07-08T21:19:55;9.27;;;6.40;;
56599;SDS011;51832;48.152;11.530;2023-07-08T21:24:55;9.63;;;6.73;;
56599;SDS011;51832;48.152;11.530;2023-07-08T21:29:55;9.10;;;6.40;;
56599;SDS011;51832;48.152;11.530;2023-07-08T21:34:56;9.77;;;6.00;;
56599;SDS011;51832;48.152;11.530;2023-07-08T21:39:56;8.70;;;6.47;;
56599;SDS011;51832;48.152;11.530;2023-07-08T21:44:57;9.00;;;6.47;;
56599;SDS011;51832;48.152;11.530;2023-07-08T21:49:57;10.93;;;6.57;;
56599;SDS011;51832;48.152;11.530;2023-07-08T21:54:57;10.97;;;6.87;;
56599;SDS011;51832;48.152;11.530;2023-07-08T21:59:58;12.57;;;7.03;;
56599;SDS011;51832;48.152;11.530;2023-07-08T22:04:58;12.07;;;7.97;;
56599;SDS011;51832;48.152;11.530;2023-07-08T22:09:58;14.30;;;8.00;;
56599;SDS011;51832;48.152;11.530;2023-07-08T22:14:59;12.90;;;7.83;;
56599;SDS011;51832;48.152;11.530;2023-07-08T22:19:59;11.77;;;7.05;;
56599;SDS011;51832;48.152;11.530;2023-07-08T22:25:01;9.10;;;7.07;;
56599;SDS011;51832;48.152;11.530;2023-07-08T22:30:01;10.23;;;7.20;;
56599;SDS011;51832;48.152;11.530;2023-07-08T22:35:02;11.60;;;7.22;;
56599;SDS011;51832;48.152;11.530;2023-07-08T22:40:02;10.60;;;7.38;;
56599;SDS011;51832;48.152;11.530;2023-07-08T22:45:04;10.27;;;6.53;;
56599;SDS011;51832;48.152;11.530;2023-07-08T22:50:08;9.45;;;6.43;;
56599;SDS011;51832;48.152;11.530;2023-07-08T23:00:19;8.55;;;6.25;;
56599;SDS011;51832;48.152;11.530;2023-07-08T23:05:23;8.55;;;6.88;;
56599;SDS011;51832;48.152;11.530;2023-07-08T23:10:26;7.38;;;5.68;;
56599;SDS011;51832;48.152;11.530;2023-07-08T23:15:26;9.83;;;5.60;;
56599;SDS011;51832;48.152;11.530;2023-07-08T23:20:27;9.53;;;6.47;;
56599;SDS011;51832;48.152;11.530;2023-07-08T23:25:27;9.32;;;6.40;;
56599;SDS011;51832;48.152;11.530;2023-07-08T23:30:27;10.73;;;6.03;;
56599;SDS011;51832;48.152;11.530;2023-07-08T23:35:28;7.93;;;6.27;;
56599;SDS011;51832;48.152;11.530;2023-07-08T23:40:28;17.60;;;7.18;;
56599;SDS011;51832;48.152;11.530;2023-07-08T23:45:29;10.70;;;7.10;;
56599;SDS011;51832;48.152;11.530;2023-07-08T23:50:30;10.38;;;7.32;;
56599;SDS011;51832;48.152;11.530;2023-07-08T23:55:30;12.33;;;7.70;;
